Flight Track Log - Related Links

Times and Time Zones

All times are in EDT time to prevent confusion due to time zone crossing. See the SWG26 flight status page for this flight to view local times or setup timezone preferences in your user account.

Time Position Orientation Groundspeed Altitude Reporting Facility
EDT Latitude Longitude Course Direction KTS MPH feet Rate Location/Type
Mon 06:49:37 AM 43.6892 -79.5801 48° Northeast 172 198 2,000  Level FlightAware ADS-B (CYYZ)
Mon 06:49:53 AM 43.6978 -79.5668 48° Northeast 196 226 2,300 1,600 Climbing FlightAware ADS-B (CYYZ)
Mon 06:50:07 AM 43.7067 -79.5531 48° Northeast 213 245 2,800 2,200 Climbing FlightAware ADS-B (CYYZ)
Mon 06:50:23 AM 43.7176 -79.5362 48° Northeast 222 255 3,400 2,323 Climbing FlightAware ADS-B (CYYZ)
Mon 06:50:38 AM 43.7282 -79.5189 52° Northeast 238 274 4,000 2,100 Climbing FlightAware ADS-B (CYYZ)
Mon 06:50:43 AM 43.7308 -79.5135 57° Northeast 243 280 4,100 2,667 Climbing FlightAware ADS-B (CYYZ)
Mon 06:50:47 AM 43.7334 -79.5048 69° East 250 288 4,400 3,000 Climbing FlightAware ADS-B (CYYZ)
Mon 06:50:53 AM 43.7346 -79.4969 79° East 255 293 4,600 3,000 Climbing FlightAware ADS-B (CYYZ)
Mon 06:50:57 AM 43.7349 -79.4899 89° East 260 299 4,900 4,000 Climbing FlightAware ADS-B (CYYZ)
Mon 06:51:02 AM 43.7341 -79.4807 98° East 263 303 5,200 2,727 Climbing FlightAware ADS-B (CYYZ)
Mon 06:51:08 AM 43.7323 -79.4720 107° East 269 310 5,400 2,182 Climbing FlightAware ADS-B (CYYZ)
Mon 06:51:13 AM 43.7296 -79.4641 115° Southeast 274 315 5,600 3,000 Climbing FlightAware ADS-B (CYYZ)
Mon 06:51:18 AM 43.7260 -79.4566 124° Southeast 280 322 5,900 3,000 Climbing FlightAware ADS-B (CYYZ)
Mon 06:51:23 AM 43.7218 -79.4500 131° Southeast 285 328 6,100 2,400 Climbing FlightAware ADS-B (CYYZ)
Mon 06:51:28 AM 43.7176 -79.4447 139° Southeast 290 334 6,300 2,400 Climbing FlightAware ADS-B (CYYZ)
Mon 06:51:33 AM 43.7110 -79.4387 147° Southeast 294 338 6,500 2,000 Climbing FlightAware ADS-B (CYYZ)
Mon 06:51:37 AM 43.7059 -79.4353 155° Southeast 295 339 6,600 1,333 Climbing FlightAware ADS-B (CYYZ)
Mon 06:51:42 AM 43.6983 -79.4317 162° South 296 341 6,700 1,200 Climbing FlightAware ADS-B (CYYZ)
Mon 06:51:47 AM 43.6917 -79.4297 167° South 297 342 6,800 286 Climbing FlightAware ADS-B (CYYZ)
Mon 06:52:03 AM 43.6715 -79.4246 169° South 295 339 6,800  Level FlightAware ADS-B (CYYZ)
Mon 06:52:14 AM 43.6599 -79.4216 170° South 296 341 6,800  Level FlightAware ADS-B (CYKF)
Mon 06:52:22 AM 43.6444 -79.4179 169° South 294 338 6,800  Level FlightAware ADS-B (CYYZ)
Mon 06:52:42 AM 43.6178 -79.4112 169° South 292 336 6,800  Level FlightAware ADS-B (CYYZ)
Mon 06:52:53 AM 43.6047 -79.4093 177° South 291 335 6,800  Level FlightAware ADS-B (CYYZ)
Mon 06:52:57 AM 43.5975 -79.4100 185° South 290 334 6,800  Level FlightAware ADS-B (CYYZ)
Mon 06:53:03 AM 43.5910 -79.4115 191° South 291 335 6,800  Level FlightAware ADS-B (CYYZ)
Mon 06:53:07 AM 43.5845 -79.4140 196° South 290 334 6,800  Level FlightAware ADS-B (CYYZ)
Mon 06:53:18 AM 43.5720 -79.4210 205° Southwest 289 333 6,800  Level FlightAware ADS-B (CYYZ)
Mon 06:53:37 AM 43.5476 -79.4361 204° Southwest 291 335 6,800  Level FlightAware ADS-B (CYYZ)
Mon 06:53:57 AM 43.5229 -79.4505 203° Southwest 290 334 6,800  Level FlightAware ADS-B (CYYZ)
Mon 06:54:17 AM 43.4976 -79.4648 203° Southwest 290 334 6,800  Level FlightAware ADS-B (CYYZ)
Mon 06:54:38 AM 43.4726 -79.4790 203° Southwest 291 335 6,800 167 Level FlightAware ADS-B (CYYZ)
Mon 06:54:53 AM 43.4539 -79.4897 203° Southwest 294 338 6,900 1,000 Climbing FlightAware ADS-B (CYYZ)
Mon 06:55:08 AM 43.4348 -79.5008 203° Southwest 296 341 7,300 1,667 Climbing FlightAware ADS-B (CYYZ)
Mon 06:55:11 AM 43.4318 -79.5026 203° Southwest 296 341 7,400 2,800 Climbing FlightAware ADS-B (CZBA)
Mon 06:55:23 AM 43.4164 -79.5114 203° Southwest 296 341 8,000 3,000 Climbing FlightAware ADS-B (CYYZ)
Mon 06:55:31 AM 43.4054 -79.5175 201° Southwest 302 348 8,400 3,200 Climbing FlightAware ADS-B (CZBA)
Mon 06:55:38 AM 43.3964 -79.5213 197° South 306 352 8,800 3,667 Climbing FlightAware ADS-B (CYYZ)
Mon 06:55:49 AM 43.3807 -79.5259 191° South 310 357 9,500 3,000 Climbing FlightAware ADS-B (CZBA)
Mon 06:55:52 AM 43.3760 -79.5272 192° South 312 359 9,500 2,000 Level FlightAware ADS-B (CYYZ)
Mon 06:56:19 AM 43.3363 -79.5381 191° South 341 392 10,500 2,000 Climbing FlightAware ADS-B (CZBA)
Mon 06:56:28 AM 43.3238 -79.5416 192° South 348 400 10,700 2,824 Climbing FlightAware ADS-B (CYYZ)
Mon 06:56:53 AM 43.2886 -79.5514 191° South 359 413 12,100 3,400 Climbing FlightAware ADS-B (CZBA)
Mon 06:56:58 AM 43.2752 -79.5551 192° South 359 413 12,400 3,706 Climbing FlightAware ADS-B (CYYZ)
Mon 06:57:27 AM 43.2257 -79.5688 192° South 364 419 14,200 3,789 Climbing FlightAware ADS-B (CYYZ)
Mon 06:57:36 AM 43.2121 -79.5726 192° South 365 420 14,800 3,677 Climbing FlightAware ADS-B (ETHL)
Mon 06:57:58 AM 43.1770 -79.5825 192° South 367 422 16,100 3,538 Climbing FlightAware ADS-B (CYYZ)
Mon 06:58:15 AM 43.1518 -79.5895 192° South 371 427 17,100 3,400 Climbing FlightAware ADS-B (CZBA)
Mon 06:58:28 AM 43.1252 -79.5968 192° South 376 433 17,800 3,290 Climbing FlightAware ADS-B (CYYZ)
Mon 06:58:46 AM 43.0941 -79.6051 191° South 380 437 18,800 3,200 Climbing FlightAware ADS-B (ETHL)
Mon 06:58:58 AM 43.0740 -79.6105 192° South 383 441 19,400 3,462 Climbing FlightAware ADS-B (CYYZ)
Mon 06:59:12 AM 43.0474 -79.6177 192° South 388 447 20,300 3,000 Climbing FlightAware ADS-B (CZBA)
Mon 06:59:28 AM 43.0210 -79.6251 192° South 390 449 20,900 2,545 Climbing FlightAware ADS-B (CYYZ)
Mon 06:59:45 AM 42.9959 -79.6320 192° South 395 455 21,700 2,600 Climbing FlightAware ADS-B (ETHL)
Mon 06:59:58 AM 42.9685 -79.6396 192° South 399 459 22,200 2,400 Climbing FlightAware ADS-B (CYYZ)
Mon 07:00:15 AM 42.9384 -79.6480 192° South 405 466 22,900 1,600 Climbing FlightAware ADS-B (ETHL)
Mon 07:00:28 AM 42.9127 -79.6552 192° South 409 471 23,000 200 Climbing FlightAware ADS-B (CYYZ)
Mon 07:00:45 AM 42.8792 -79.6645 192° South 409 471 23,000 600 Level FlightAware ADS-B (ETHL)
Mon 07:00:58 AM 42.8562 -79.6709 192° South 409 471 23,300 2,000 Climbing FlightAware ADS-B (CYYZ)
Mon 07:01:15 AM 42.8443 -79.6742 191° South 409 471 24,000 2,400 Climbing FlightAware ADS-B (CZBA)
Mon 07:01:28 AM 42.8009 -79.6861 192° South 411 473 24,500 2,462 Climbing FlightAware ADS-B (CYYZ)
Mon 07:01:54 AM 42.7509 -79.6999 191° South 416 479 25,600 2,483 Climbing FlightAware ADS-B (ETHL)
Mon 07:01:57 AM 42.7626 -79.6966 192° South 416 479 25,700 2,129 Climbing FlightAware ADS-B (CYYZ)
Mon 07:02:25 AM 42.6926 -79.7158 191° South 416 479 26,700 2,129 Climbing FlightAware ADS-B (ETHL)
Mon 07:02:28 AM 42.6874 -79.7172 192° South 425 489 26,800 2,000 Climbing FlightAware ADS-B (CYYZ)
Mon 07:02:58 AM 42.6304 -79.7328 192° South 431 496 27,800 2,339 Climbing FlightAware ADS-B (CYYZ)
Mon 07:03:27 AM 42.5760 -79.7475 192° South 429 494 29,100 2,500 Climbing FlightAware ADS-B (CYYZ)
Mon 07:03:58 AM 42.5133 -79.7646 192° South 426 490 30,300 2,100 Climbing FlightAware ADS-B (CYYZ)
Mon 07:04:27 AM 42.4557 -79.7802 192° South 428 493 31,200 1,800 Climbing FlightAware ADS-B (CYYZ)
Mon 07:04:58 AM 42.3949 -79.7968 192° South 433 498 32,100 930 Climbing FlightAware ADS-B (CYYZ)
Mon 07:05:38 AM 42.3145 -79.8186 192° South 463 533 32,300 522 Climbing FlightAware ADS-B (CYYZ)
Mon 07:06:07 AM 42.2498 -79.8359 192° South 474 545 32,700 1,220 Climbing FlightAware ADS-B (CYYZ)
Mon 07:06:37 AM 42.1853 -79.8531 192° South 479 551 33,500 1,600 Climbing FlightAware ADS-B (CYYZ)
Mon 07:07:07 AM 42.1204 -79.8703 192° South 479 551 34,300 1,574 Climbing FlightAware ADS-B (CYYZ)
Mon 07:07:38 AM 42.0558 -79.8876 192° South 480 552 35,100 1,400 Climbing FlightAware ADS-B (CYYZ)
Mon 07:08:07 AM 41.9893 -79.9055 192° South 483 556 35,700 1,400 Climbing FlightAware ADS-B (CYYZ)
Mon 07:08:38 AM 41.9241 -79.9229 192° South 482 555 36,500 2,300 Climbing FlightAware ADS-B (CYYZ)
Mon 07:09:07 AM 41.8598 -79.9400 192° South 460 529 38,000 3,000 Climbing FlightAware ADS-B (CYYZ)
Mon 07:09:38 AM 41.7977 -79.9566 192° South 436 502 39,500 2,000 Climbing FlightAware ADS-B (CYYZ)
Mon 07:10:07 AM 41.7391 -79.9727 192° South 435 501 40,000 500 Climbing FlightAware ADS-B (CYYZ)
Mon 07:10:38 AM 41.6796 -79.9886 192° South 442 509 40,000  Level FlightAware ADS-B (CYYZ)
Mon 07:11:07 AM 41.6202 -80.0040 191° South 447 514 40,000  Level FlightAware ADS-B (CYYZ)
Mon 07:11:37 AM 41.5608 -80.0190 191° South 448 516 40,000  Level FlightAware ADS-B (CYYZ)
Mon 07:12:07 AM 41.4986 -80.0333 187° South 452 520 40,000  Level FlightAware ADS-B (CYYZ)
Mon 07:12:37 AM 41.4352 -80.0353 179° South 459 528 40,000  Level FlightAware ADS-B (CYYZ)
Mon 07:13:18 AM 41.3527 -80.0356 181° South 460 529 40,000  Level FlightAware ADS-B (CYYZ)
Mon 07:14:21 AM 41.2119 -80.0380 181° South 460 529 40,000  Level FlightAware ADS-B (CYYZ)
Mon 07:15:21 AM 41.0864 -80.0402 181° South 460 529 40,000  Level FlightAware ADS-B (CYYZ)
Mon 07:15:50 AM 41.0497 -80.0411 181° South 460 529 40,000  Level FlightAware ADS-B (CYYZ)
Mon 07:16:23 AM 40.9730 -80.0430 182° South 466 536 40,000  Level FlightAware ADS-B (CYYZ)
Mon 07:17:17 AM 40.8378 -80.0467 182° South 464 534 40,000  Level Cleveland Center
Mon 07:18:19 AM 40.7097 -80.0481 180° South 464 534 40,000  Level Cleveland Center
Mon 07:19:20 AM 40.5811 -80.0497 181° South 464 534 40,000  Level Cleveland Center
Mon 07:20:22 AM 40.4522 -80.0522 181° South 464 534 40,000  Level Cleveland Center
Mon 07:21:23 AM 40.3244 -80.0556 181° South 464 534 40,000  Level Cleveland Center
Mon 07:22:25 AM 40.2003 -80.0594 181° South 465 535 40,000  Level Cleveland Center
Mon 07:23:26 AM 40.0453 -80.0619 181° South 464 534 40,000  Level Cleveland Center
Mon 07:24:28 AM 39.9144 -80.0644 181° South 465 535 40,000  Level Cleveland Center
Mon 07:25:29 AM 39.7844 -80.0689 182° South 468 539 40,000  Level Cleveland Center
Mon 07:26:31 AM 39.6547 -80.0694 180° South 468 539 40,000  Level Cleveland Center
Mon 07:27:15 AM 39.5533 -80.0703 180° South 463 533 40,000  Level Washington Center
Mon 07:28:16 AM 39.4219 -80.0731 181° South 468 539 40,000  Level Washington Center
Mon 07:29:14 AM 39.2906 -80.0756 181° South 473 544 40,000  Level Washington Center
Mon 07:30:15 AM 39.1589 -80.0808 182° South 478 550 40,000  Level Washington Center
Mon 07:31:16 AM 39.0297 -80.0808 180° South 478 550 40,000  Level Washington Center
Mon 07:32:14 AM 38.8978 -80.0994 186° South 478 550 40,000  Level Washington Center
Mon 07:33:15 AM 38.7878 -80.1408 196° South 473 544 40,000  Level Washington Center
Mon 07:34:16 AM 38.6672 -80.1811 195° South 468 539 40,000  Level Washington Center
Mon 07:35:17 AM 38.5425 -80.2239 195° South 463 533 40,000  Level Washington Center
Mon 07:36:15 AM 38.4181 -80.2664 195° South 463 533 40,000  Level Washington Center
Mon 07:37:15 AM 38.2869 -80.3111 195° South 458 527 40,000  Level Washington Center
Mon 07:38:16 AM 38.1683 -80.3539 196° South 458 527 40,000  Level Washington Center
Mon 07:39:14 AM 38.0481 -80.3936 195° South 458 527 40,000  Level Washington Center
Mon 07:40:15 AM 37.9381 -80.4314 195° South 452 520 40,000  Level Washington Center
Mon 07:41:15 AM 37.8194 -80.4711 195° South 452 520 40,000  Level Washington Center
Mon 07:42:16 AM 37.6989 -80.5131 195° South 452 520 40,000  Level Washington Center
Mon 07:43:15 AM 37.5806 -80.5525 195° South 447 514 40,000  Level Washington Center
Mon 07:45:25 AM 37.3122 -80.6389 194° South 434 499 40,000  Level Atlanta Center
Mon 07:46:25 AM 37.1906 -80.6806 195° South 440 506 40,000  Level Atlanta Center
Mon 07:47:25 AM 37.0706 -80.7169 194° South 447 514 40,000  Level Atlanta Center
Mon 07:48:25 AM 36.9542 -80.7297 185° South 457 526 40,000  Level Atlanta Center
Mon 07:49:25 AM 36.8294 -80.7400 184° South 462 532 40,000  Level Atlanta Center
Mon 07:50:25 AM 36.6900 -80.7561 185° South 462 532 40,000  Level Atlanta Center
Mon 07:51:25 AM 36.5633 -80.7692 185° South 462 532 40,000  Level Atlanta Center
Mon 07:52:25 AM 36.4344 -80.7847 186° South 462 532 40,000  Level Atlanta Center
Mon 07:53:25 AM 36.3056 -80.8003 186° South 462 532 40,000  Level Atlanta Center
Mon 07:54:25 AM 36.1744 -80.8133 185° South 462 532 40,000  Level Atlanta Center
Mon 07:55:25 AM 36.0453 -80.8236 184° South 462 532 40,000  Level Atlanta Center
Mon 07:56:25 AM 35.9164 -80.8389 185° South 462 532 40,000  Level Atlanta Center
Mon 07:57:25 AM 35.7853 -80.8542 185° South 468 539 40,000  Level Atlanta Center
Mon 07:58:25 AM 35.6564 -80.8644 184° South 468 539 40,000  Level Atlanta Center
Mon 07:59:25 AM 35.5275 -80.8797 186° South 468 539 40,000  Level Atlanta Center
Mon 08:00:25 AM 35.3983 -80.8922 185° South 468 539 40,000  Level Atlanta Center
Mon 08:01:25 AM 35.2736 -80.9097 187° South 461 531 40,000  Level Atlanta Center
Mon 08:02:25 AM 35.1467 -80.9247 186° South 461 531 40,000  Level Atlanta Center
Mon 08:03:25 AM 35.0219 -80.9369 185° South 461 531 40,000  Level Atlanta Center
Mon 08:08:54 AM 34.3487 -81.0457 199° South 437 503 40,000  Level FlightAware ADS-B (EFHN)
Mon 08:09:37 AM 34.2654 -81.0804 199° South 436 502 40,000  Level FlightAware ADS-B (EFHN)
Mon 08:10:07 AM 34.2094 -81.1036 199° South 436 502 40,000  Level FlightAware ADS-B (EFHN)
Mon 08:10:46 AM 34.1344 -81.1343 199° South 436 502 40,000  Level FlightAware ADS-B (EFHN)
Mon 08:11:22 AM 34.0650 -81.1623 199° South 436 502 40,000  Level FlightAware ADS-B (EFHN)
Mon 08:12:04 AM 33.9856 -81.1947 199° South 436 502 40,000  Level FlightAware ADS-B (EFHN)
Mon 08:12:58 AM 33.9006 -81.2286 199° South 434 499 40,000  Level Jacksonville Center
Mon 08:13:58 AM 33.7883 -81.2733 198° South 434 499 40,000  Level Jacksonville Center
Mon 08:14:58 AM 33.6744 -81.3253 201° Southwest 440 506 40,000  Level Jacksonville Center
Mon 08:15:58 AM 33.5600 -81.3672 197° South 440 506 40,000  Level Jacksonville Center
Mon 08:16:58 AM 33.4436 -81.4114 198° South 440 506 40,000  Level Jacksonville Center
Mon 08:17:58 AM 33.3317 -81.4581 199° South 440 506 40,000  Level Jacksonville Center
Mon 08:18:58 AM 33.2194 -81.5072 200° South 440 506 40,000  Level Jacksonville Center
Mon 08:19:58 AM 33.1031 -81.5536 198° South 440 506 40,000  Level Jacksonville Center
Mon 08:20:58 AM 32.9908 -81.5972 198° South 440 506 40,000  Level Jacksonville Center
Mon 08:21:58 AM 32.8764 -81.6411 198° South 440 506 40,000 -50 Level Jacksonville Center
Mon 08:22:58 AM 32.7642 -81.6869 199° South 440 506 39,900  Descending Jacksonville Center
Mon 08:23:58 AM 32.6456 -81.7356 199° South 428 493 40,000 50 Climbing Jacksonville Center
Mon 08:24:58 AM 32.5375 -81.7764 198° South 419 482 40,000  Level Jacksonville Center
Mon 08:25:58 AM 32.4333 -81.8022 192° South 419 482 40,000  Level Jacksonville Center
Mon 08:26:58 AM 32.3061 -81.8308 191° South 425 489 40,000  Level Jacksonville Center
Mon 08:27:58 AM 32.1894 -81.8542 190° South 430 495 40,000  Level Jacksonville Center
Mon 08:28:58 AM 32.0728 -81.8750 189° South 430 495 40,000  Level Jacksonville Center
Mon 08:29:58 AM 31.9539 -81.8983 189° South 430 495 40,000  Level Jacksonville Center
Mon 08:30:58 AM 31.8475 -81.9192 189° South 430 495 40,000  Level Jacksonville Center
Mon 08:31:58 AM 31.7161 -81.9450 189° South 430 495 40,000  Level Jacksonville Center
Mon 08:32:58 AM 31.5994 -81.9706 191° South 430 495 40,000  Level Jacksonville Center
Mon 08:33:58 AM 31.4786 -81.9936 189° South 430 495 40,000 -50 Level Jacksonville Center
Mon 08:34:58 AM 31.3597 -82.0167 189° South 430 495 39,900 -550 Descending Jacksonville Center
Mon 08:35:58 AM 31.2450 -82.0422 191° South 430 495 38,900 -1,000 Descending Jacksonville Center
Mon 08:36:58 AM 31.1303 -82.0600 188° South 430 495 37,900 -450 Descending Jacksonville Center
Mon 08:37:58 AM 31.0156 -82.0853 191° South 430 495 38,000 50 Climbing Jacksonville Center
Mon 08:38:58 AM 30.9050 -82.1081 190° South 430 495 38,000 -50 Level Jacksonville Center
Mon 08:39:58 AM 30.7883 -82.1308 190° South 430 495 37,900  Descending Jacksonville Center
Mon 08:40:58 AM 30.6778 -82.1511 189° South 424 488 38,000 -484 Climbing Jacksonville Center
Mon 08:46:35 AM 30.0508 -82.2700 190° South 387 445 34,700 -771 Descending FlightAware ADS-B
Mon 08:47:35 AM 29.9460 -82.2903 189° South 377 434 32,900 -1,733 Descending FlightAware ADS-B
Mon 08:48:05 AM 29.8965 -82.2999 190° South 372 428 32,100 -1,650 Descending FlightAware ADS-B
Mon 08:48:55 AM 29.8115 -82.3160 190° South 364 419 30,700 -1,636 Descending FlightAware ADS-B
Mon 08:49:55 AM 29.7135 -82.3347 189° South 362 417 29,100 -1,667 Descending FlightAware ADS-B
Mon 08:50:25 AM 29.6608 -82.3448 189° South 367 422 28,200 -1,618 Descending FlightAware ADS-B
Mon 08:55:51 AM 29.1142 -82.3024 174° South 349 402 19,500 -1,591 Descending FlightAware ADS-B
Mon 08:56:27 AM 29.0573 -82.2957 174° South 344 396 18,600 -1,366 Descending FlightAware ADS-B
Mon 09:01:38 AM 28.5858 -82.2556 179° South 311 358 11,600 -1,288 Descending FlightAware ADS-B
Mon 09:02:21 AM 28.5294 -82.2698 221° Southwest 290 334 11,000 -610 Descending FlightAware ADS-B
Mon 09:03:36 AM 28.5000 -82.3667 221° Southwest 261 300 10,400 -444 Descending Tampa TRACON
Mon 09:04:36 AM 28.5000 -82.4500 270° West 265 305 10,000 -200 Descending Tampa TRACON
Mon 09:05:36 AM 28.4833 -82.5333 257° West 272 313 10,000 -200 Level Tampa TRACON
Mon 09:06:36 AM 28.4500 -82.6167 246° West 277 319 9,600 -650 Descending Tampa TRACON
Mon 09:07:36 AM 28.4000 -82.6833 230° Southwest 287 330 8,700 -950 Descending Tampa TRACON
Mon 09:08:36 AM 28.3333 -82.7333 213° Southwest 290 334 7,700 -850 Descending Tampa TRACON
Mon 09:09:36 AM 28.2667 -82.7833 213° Southwest 283 326 7,000 -500 Descending Tampa TRACON
Mon 09:10:36 AM 28.1833 -82.7833 180° South 285 328 6,700 -700 Descending Tampa TRACON
Mon 09:11:36 AM 28.1000 -82.7833 180° South 273 314 5,600 -1,041 Descending Tampa TRACON
Mon 09:12:37 AM 28.0333 -82.8000 192° South 261 300 4,600 -800 Descending Tampa TRACON
Mon 09:13:36 AM 27.9667 -82.8000 180° South 260 299 4,000 -528 Descending Tampa TRACON
Mon 09:14:42 AM 27.8833 -82.8167 190° South 230 265 3,500 -714 Descending Tampa TRACON
Mon 09:15:42 AM 27.8333 -82.8167 180° South 203 234 2,500 -950 Descending Tampa TRACON
Mon 09:16:42 AM 27.7833 -82.8000 164° South 182 209 1,600 -500 Descending Tampa TRACON
Mon 09:17:42 AM 27.7833 -82.7500 90° East 153 176 1,500  Descending Tampa TRACON
Mon 09:18:42 AM 27.8000 -82.7167 61° Northeast 147 169 1,600 -50 Climbing Tampa TRACON
Mon 09:19:42 AM 27.8167 -82.6833 61° Northeast 136 157 1,400 -368 Descending Tampa TRACON
Mon 09:20:36 AM 27.8500 -82.6833 360° North 135 155 900 -556 Descending Tampa TRACON

Login

Don't have an account? Register now (free) for customized features, flight alerts, and more!